Congress Lake, Ohio
Current Conditions -  °F | °C
As of 4:51 AM on Sunday 26 Oct 2014 (Local Time) from KCAK Reporting Station
Clear Clear  
Wind Chill: 42°   Ceiling: Unl
Heat Index: 46°   Visibility: 10mi
Dew Point: 33°   Wind: 8mph
Humidity: 61%   Direction: 290°WNW
Pressure: 29.84"   Gusts: NA
Location:  40.9665°N, 81.3038°W
Report Text: KCAK 260851Z 29007KT 10SM CLR 08/01 A2984 RMK AO2 SLP102 T00780006 52006
Loading
Personal Weather Stations






























Interactive Weather Map
Tropical Storm Tracking
New forecast layout! Learn more

10-Day Weather Forecast

Advertisements
Track Severe Weather on mobile